Latest Weather Observations for Khancoban

IDN60801

Issued at 2:02 pm EST Wednesday 5 August 2015 (issued every 30 minutes, with the page automatically refreshed every 10 minutes)

About weather observations | Map of weather stations | Latest weather observations for NSW | Other Formats
Station Details ID: 072162 Name: KHANCOBAN AWS Lat: -36.23 Lon: 148.14 Height: 339.3 m
Data from the previous 72 hours. | See also: Recent months at Khancoban
Date/Time
EST
Temp
°C
App
Temp
°C
Dew
Point
Rel
Hum
%
Delta-T
°C
Wind Press
QNH
hPa
Press
MSL
hPa
Rain
since 9 am
mm
Dir
 
Spd
km/h
Gust
km/h
Spd
kts
Gust
kts
05/02:00pm 9.3 6.4 6.7 84 1.2 N 11 17 6 9 1010.6 1011.1 4.0
05/01:30pm 7.1 3.9 7.0 99 0.0 W 13 22 7 12 1011.0 1011.5 4.0
05/01:00pm 7.7 3.5 7.3 97 0.2 N 19 24 10 13 1010.6 1011.1 0.8
05/12:30pm 7.5 3.4 6.3 92 0.6 NNE 17 22 9 12 1011.2 1011.7 0.6
05/12:00pm 7.2 3.2 6.5 95 0.3 N 17 22 9 12 1011.7 1012.2 0.4
05/11:30am 7.1 3.9 5.1 87 0.9 NNW 11 17 6 9 1012.3 1012.7 0.4
05/11:00am 7.0 4.0 5.9 93 0.5 NW 11 15 6 8 1012.4 1012.9 0.4
05/10:30am 6.7 4.4 5.8 94 0.4 NW 7 13 4 7 1012.6 1013.1 0.4
05/10:00am 6.0 3.7 5.9 99 0.0 NW 7 11 4 6 1012.9 1013.4 0.0
05/09:30am 5.2 2.8 5.1 99 0.0 SSE 7 9 4 5 1013.4 1013.9 0.0
05/09:00am 5.0 2.5 4.9 99 0.0 SW 7 11 4 6 1013.5 1014.0 2.2
05/08:30am 5.0 2.1 4.6 97 0.2 WNW 9 15 5 8 1013.6 1014.1 2.2
05/08:00am 4.8 2.3 3.9 94 0.4 NW 6 13 3 7 1013.8 1014.3 2.2
05/07:30am 4.4 1.0 3.8 96 0.3 NNW 11 17 6 9 1013.8 1014.3 2.0
05/07:00am 4.6 0.4 3.6 93 0.4 NNW 15 24 8 13 1013.9 1014.4 1.6
05/06:30am 3.8 0.7 3.7 99 0.0 NW 9 15 5 8 1014.0 1014.5 1.6
05/06:00am 3.9 0.8 3.6 98 0.1 WNW 9 13 5 7 1014.3 1014.8 1.0
05/05:30am 3.7 0.2 3.4 98 0.1 NW 11 17 6 9 1014.2 1014.7 0.8
05/05:00am 3.5 0.3 3.1 97 0.2 NW 9 13 5 7 1014.6 1015.1 0.8
05/04:30am 3.7 0.9 3.0 95 0.3 NW 7 13 4 7 1015.2 1015.7 0.8
05/04:00am 2.9 0.6 2.9 100 0.0 NE 4 9 2 5 1015.5 1016.0 0.8
05/03:30am 2.9 0.6 2.8 99 0.0 SSW 4 7 2 4 1016.3 1016.8 0.8
05/03:00am 3.0 0.7 2.9 99 0.0 S 4 7 2 4 1016.8 1017.3 0.4
05/02:30am 3.3 0.9 2.3 93 0.4 NNW 4 9 2 5 1017.4 1018.0 0.2
05/02:00am 3.8 2.0 1.5 85 0.9 CALM 0 0 0 0 1017.8 1018.4 0.2
05/01:30am 3.7 0.3 2.1 89 0.6 SE 9 11 5 6 1017.6 1018.2 0.2
05/01:00am 3.9 0.7 0.8 80 1.2 NNE 7 13 4 7 1017.8 1018.4 0.2
05/12:30am 4.1 1.4 0.3 76 1.5 NNE 4 9 2 5 1018.5 1019.0 0.2
05/12:00am 3.6 1.5 2.0 89 0.6 N 2 6 1 3 1019.2 1019.7 0.2
 
Date/Time
EST
Temp
°C
App
Temp
°C
Dew
Point
Rel
Hum
%
Delta-T
°C
Wind Press
QNH
hPa
Press
MSL
hPa
Rain
since 9 am
mm
Dir
 
Spd
km/h
Gust
km/h
Spd
kts
Gust
kts
04/11:30pm 4.0 1.0 1.0 81 1.2 ENE 6 7 3 4 1019.2 1019.7 0.2
04/11:00pm 4.3 1.0 -0.1 73 1.7 N 7 11 4 6 1019.5 1020.0 0.2
04/10:30pm 3.7 0.8 1.4 85 0.9 NNW 6 7 3 4 1019.8 1020.4 0.2
04/10:00pm 4.1 2.2 0.8 79 1.3 CALM 0 6 0 3 1020.0 1020.6 0.2
04/09:30pm 4.2 0.9 0.2 75 1.5 NNE 7 9 4 5 1020.4 1021.0 0.2
04/09:00pm 4.3 1.2 0.3 75 1.5 NNE 6 7 3 4 1020.6 1021.2 0.2
04/08:30pm 4.3 1.0 0.3 75 1.6 NNW 7 11 4 6 1020.7 1021.3 0.2
04/08:00pm 4.4 1.7 0.0 73 1.7 N 4 6 2 3 1020.6 1021.2 0.2
04/07:30pm 4.4 0.8 0.6 76 1.5 N 9 11 5 6 1020.6 1021.2 0.2
04/07:00pm 4.5 1.3 0.5 75 1.6 NNE 7 9 4 5 1020.5 1021.1 0.2
04/06:30pm 4.6 1.5 0.2 73 1.7 NNE 6 7 3 4 1020.6 1021.2 0.2
04/06:00pm 4.8 1.5 0.0 71 1.9 N 7 11 4 6 1020.5 1021.1 0.2
04/05:30pm 5.1 1.7 -0.7 66 2.2 NW 7 9 4 5 1020.5 1021.1 0.2
04/05:00pm 5.3 0.7 -1.4 62 2.5 WNW 13 17 7 9 1020.4 1021.0 0.2
04/04:30pm 5.6 2.4 0.6 70 2.0 NNW 7 11 4 6 1020.2 1020.8 0.2
04/04:00pm 6.0 1.9 -0.1 65 2.4 NW 11 15 6 8 1020.2 1020.8 0.2
04/03:30pm 6.5 3.1 -0.9 59 2.9 NNW 7 11 4 6 1020.2 1020.8 0.2
04/03:00pm 6.6 2.8 -1.1 58 3.0 WNW 9 13 5 7 1020.5 1021.1 0.2
04/02:30pm 6.7 2.6 -0.5 60 2.8 NW 11 17 6 9 1020.5 1021.1 0.2
04/02:00pm 6.8 3.4 -2.1 53 3.3 NW 6 7 3 4 1020.7 1021.3 0.2
04/01:30pm 7.7 4.0 0.0 58 3.1 NW 9 17 5 9 1021.0 1021.6 0.2
04/01:00pm 7.6 2.9 1.2 64 2.6 NW 15 19 8 10 1021.3 1021.9 0.2
04/12:30pm 6.6 2.3 0.9 67 2.3 WNW 13 17 7 9 1022.0 1022.5 0.2
04/12:00pm 6.2 2.8 1.7 73 1.8 WNW 9 13 5 7 1022.4 1023.0 0.2
04/11:30am 5.2 2.7 1.3 76 1.6 WNW 4 7 2 4 1022.9 1023.5 0.2
04/11:00am 3.8 1.2 1.2 83 1.0 WNW 4 7 2 4 1023.4 1024.0 0.0
04/10:30am 2.6 0.6 2.5 99 0.0 WNW 2 6 1 3 1023.7 1024.3 0.0
04/10:00am 1.1 -1.9 1.1 100 0.0 NW 6 9 3 5 1023.7 1024.3 0.0
04/09:30am -0.1 -2.1 -0.1 100 0.0 CALM 0 0 0 0 1024.0 1024.6 0.0
04/09:00am -1.5 -3.7 -1.5 100 0.0 CALM 0 0 0 0 1024.0 1024.6 2.0
04/08:30am -1.9 -4.1 -1.9 100 0.0 CALM 0 0 0 0 1023.8 1024.4 1.8
04/08:00am -2.1 -4.4 -2.1 100 0.0 CALM 0 0 0 0 1023.9 1024.5 1.8
04/07:30am -2.1 -4.4 -2.1 100 0.0 CALM 0 0 0 0 1023.8 1024.4 1.8
04/07:00am -2.2 -4.5 -2.2 100 0.0 CALM 0 0 0 0 1023.5 1024.1 1.8
04/06:30am -2.7 -5.1 -2.8 99 -0.1 CALM 0 0 0 0 1023.4 1024.0 1.8
04/06:00am -2.4 -4.7 -2.4 100 0.0 CALM 0 0 0 0 1023.0 1023.6 1.8
04/05:30am -1.8 -4.8 -1.8 100 0.0 SSE 4 7 2 4 1023.0 1023.6 1.8
04/05:00am -1.7 -3.9 -1.7 100 0.0 CALM 0 0 0 0 1023.0 1023.6 1.8
04/04:30am -1.4 -4.7 -1.4 100 0.0 S 6 7 3 4 1022.9 1023.5 1.8
04/04:00am -1.9 -4.9 -2.0 99 -0.1 E 4 7 2 4 1023.0 1023.6 1.8
04/03:30am -1.4 -3.6 -1.5 99 0.0 CALM 0 0 0 0 1023.1 1023.7 1.8
04/03:00am -1.7 -3.9 -1.8 99 0.0 CALM 0 0 0 0 1023.1 1023.7 1.8
04/02:30am -1.2 -3.4 -1.3 99 0.0 CALM 0 0 0 0 1022.9 1023.5 1.8
04/02:00am -1.0 -3.1 -1.0 100 0.0 CALM 0 0 0 0 1022.8 1023.4 1.8
04/01:30am -0.7 -2.8 -0.8 99 0.0 CALM 0 0 0 0 1022.9 1023.5 1.8
04/01:00am -0.6 -2.7 -0.7 99 0.0 CALM 0 0 0 0 1022.9 1023.5 1.8
04/12:30am -0.4 -2.5 -0.5 99 0.0 CALM 0 0 0 0 1022.8 1023.4 1.8
04/12:00am -0.4 -2.5 -0.5 99 0.0 CALM 0 0 0 0 1022.8 1023.4 1.8
 
Date/Time
EST
Temp
°C
App
Temp
°C
Dew
Point
Rel
Hum
%
Delta-T
°C
Wind Press
QNH
hPa
Press
MSL
hPa
Rain
since 9 am
mm
Dir
 
Spd
km/h
Gust
km/h
Spd
kts
Gust
kts
03/11:30pm 0.3 -1.7 0.2 99 0.0 CALM 0 0 0 0 1022.6 1023.2 1.8
03/11:00pm 0.4 -1.5 0.3 99 0.0 CALM 0 4 0 2 1022.4 1023.0 1.8
03/10:30pm 0.5 -1.8 0.4 99 0.0 S 2 7 1 4 1022.3 1022.9 1.8
03/10:00pm 1.2 -1.8 1.1 99 0.0 SSE 6 7 3 4 1022.2 1022.7 1.8
03/09:30pm 1.6 -0.9 1.5 99 0.0 S 4 9 2 5 1021.9 1022.4 1.8
03/09:00pm 2.1 -0.7 2.0 99 0.0 S 6 9 3 5 1021.7 1022.2 1.8
03/08:30pm 2.7 0.7 2.1 96 0.2 S 2 7 1 4 1021.3 1021.9 1.8
03/08:00pm 2.9 -0.1 1.9 93 0.4 NNE 7 11 4 6 1021.0 1021.6 1.8
03/07:30pm 3.7 1.1 3.3 97 0.2 ESE 6 7 3 4 1020.6 1021.2 1.8
03/07:00pm 4.2 2.1 3.9 98 0.1 WSW 4 7 2 4 1020.3 1020.9 1.8
03/06:30pm 5.0 3.2 3.7 91 0.6 SW 2 7 1 4 1019.7 1020.2 1.8
03/06:00pm 5.4 2.6 3.3 86 0.9 SSE 7 11 4 6 1019.2 1019.7 1.8
03/05:30pm 6.7 4.6 3.7 81 1.3 SW 4 13 2 7 1018.8 1019.3 1.8
03/05:00pm 8.3 5.8 3.8 73 2.0 SSW 6 9 3 5 1018.5 1019.0 1.8
03/04:30pm 8.3 4.7 3.0 69 2.3 S 11 15 6 8 1018.0 1018.6 1.8
03/04:00pm 9.0 3.2 2.3 63 2.9 NW 22 32 12 17 1017.2 1017.7 1.8
03/03:30pm 9.5 3.8 3.0 64 2.8 NW 22 30 12 16 1017.2 1017.7 1.8
03/03:00pm 10.0 6.3 4.6 69 2.5 N 13 19 7 10 1016.8 1017.3 1.8
03/02:30pm 9.6 6.3 4.8 72 2.2 NNW 11 17 6 9 1016.7 1017.2 1.8
03/02:00pm 9.0 4.5 4.2 72 2.1 W 17 26 9 14 1016.4 1016.9 1.8
03/01:30pm 9.7 4.1 3.2 64 2.9 NNW 22 33 12 18 1015.9 1016.4 1.6
03/01:00pm 9.3 3.7 3.5 67 2.6 N 22 37 12 20 1015.8 1016.3 1.6
03/12:30pm 8.4 2.9 5.9 84 1.2 N 24 33 13 18 1016.1 1016.6 1.6
03/12:00pm 8.0 4.2 5.6 85 1.1 NNW 15 20 8 11 1016.5 1017.0 1.6
03/11:30am 7.4 2.6 5.7 89 0.8 N 20 30 11 16 1016.5 1017.0 1.4
03/11:00am 7.7 1.7 5.2 84 1.1 N 26 37 14 20 1016.5 1017.0 0.6
03/10:44am 7.6 0.9 5.7 88 0.9 N 30 50 16 27 1016.1 1016.6 0.6
03/10:30am 7.4 1.8 5.2 86 1.0 N 24 33 13 18 1016.6 1017.1 0.0
03/10:00am 7.7 1.7 5.3 85 1.1 N 26 37 14 20 1016.5 1017.0 0.0
03/09:30am 7.5 2.4 5.8 89 0.8 N 22 33 12 18 1016.2 1016.7 0.0
03/09:00am 7.5 2.6 5.1 85 1.1 N 20 28 11 15 1016.2 1016.7 8.2
03/08:30am 7.1 3.3 5.9 92 0.6 N 15 22 8 12 1016.2 1016.7 8.2
03/08:00am 6.9 2.3 5.7 92 0.5 NNE 19 32 10 17 1016.1 1016.6 8.0
03/07:30am 6.6 3.2 5.7 94 0.4 N 13 24 7 13 1016.1 1016.6 7.6
03/07:00am 6.7 2.8 5.3 91 0.6 N 15 20 8 11 1016.0 1016.5 7.4
03/06:30am 7.1 2.3 4.6 84 1.1 N 19 28 10 15 1015.6 1016.1 6.6
03/06:00am 7.6 2.6 4.4 80 1.4 NNE 20 28 11 15 1015.5 1016.0 6.6
03/05:30am 7.6 2.6 4.7 82 1.3 N 20 32 11 17 1015.2 1015.7 6.6
03/05:00am 7.3 1.3 5.4 88 0.9 N 26 35 14 19 1015.5 1016.0 6.6
03/04:30am 7.5 1.8 5.0 84 1.1 NNE 24 33 13 18 1015.2 1015.7 6.4
03/04:00am 7.6 2.7 4.9 83 1.2 NNE 20 28 11 15 1015.2 1015.7 6.4
03/03:30am 7.6 3.8 5.7 88 0.9 NNE 15 28 8 15 1015.5 1016.0 6.4
03/03:00am 7.2 3.1 6.0 92 0.6 N 17 24 9 13 1016.2 1016.7 6.4
03/02:30am 7.2 2.1 6.1 93 0.5 N 22 32 12 17 1016.5 1017.0 5.8
03/02:00am 7.6 2.1 5.9 89 0.8 NNE 24 39 13 21 1016.3 1016.8 5.6
03/01:30am 7.8 2.1 4.9 82 1.3 NNE 24 39 13 21 1016.2 1016.7 5.2
03/01:24am 7.9 1.4 4.8 81 1.4 NNE 28 46 15 25 1016.3 1016.8 5.2
03/01:00am 7.9 2.2 5.0 82 1.3 NNE 24 41 13 22 1016.3 1016.8 5.2
03/12:30am 7.8 2.4 4.7 81 1.4 N 22 30 12 16 1016.8 1017.3 5.0
03/12:07am 8.2 1.2 4.2 76 1.8 N 30 48 16 26 1016.8 1017.3 5.0
03/12:00am 8.2 2.0 4.2 76 1.8 N 26 39 14 21 1016.8 1017.3 5.0
 
Date/Time
EST
Temp
°C
App
Temp
°C
Dew
Point
Rel
Hum
%
Delta-T
°C
Wind Press
QNH
hPa
Press
MSL
hPa
Rain
since 9 am
mm
Dir
 
Spd
km/h
Gust
km/h
Spd
kts
Gust
kts
02/11:54pm 7.9 1.4 4.5 79 1.5 N 28 46 15 25 1016.8 1017.3 5.0
02/11:30pm 7.9 1.7 4.5 79 1.5 N 26 35 14 19 1016.7 1017.2 5.0
02/11:00pm 7.3 2.3 4.6 83 1.2 N 20 32 11 17 1017.3 1017.9 4.8
02/10:30pm 7.9 3.3 3.8 75 1.8 NNW 17 24 9 13 1017.3 1017.9 4.2
02/10:00pm 8.1 3.8 3.2 71 2.1 NNW 15 22 8 12 1017.3 1017.9 4.2
02/09:30pm 7.8 4.2 2.7 70 2.2 NNW 11 17 6 9 1017.5 1018.1 4.2
02/09:00pm 8.1 4.1 2.8 69 2.3 N 13 19 7 10 1017.3 1017.9 4.2
02/08:30pm 8.1 4.0 2.4 67 2.4 NNE 13 17 7 9 1017.3 1017.9 4.2
02/08:00pm 8.2 3.7 2.4 67 2.5 NNE 15 20 8 11 1017.5 1018.1 4.2
02/07:30pm 8.0 3.6 2.9 70 2.2 N 15 24 8 13 1017.8 1018.4 4.2
02/07:00pm 7.4 4.3 3.6 77 1.7 N 9 13 5 7 1017.5 1018.1 4.2
02/06:30pm 6.6 4.2 4.1 84 1.1 N 6 9 3 5 1016.9 1017.4 4.2
02/06:00pm 6.8 3.0 3.9 82 1.3 NNE 13 15 7 8 1016.2 1016.7 4.2
02/05:30pm 8.2 3.5 3.3 71 2.1 NNW 17 26 9 14 1015.6 1016.1 4.2
02/05:00pm 8.2 5.3 4.6 78 1.6 N 9 13 5 7 1014.9 1015.5 4.2
02/04:30pm 8.9 4.6 3.3 68 2.5 NW 15 19 8 10 1014.3 1014.8 4.2
02/04:00pm 8.8 5.0 4.0 72 2.1 NNW 13 20 7 11 1014.2 1014.7 4.2
02/03:30pm 9.6 5.9 4.6 71 2.3 NW 13 24 7 13 1013.5 1014.0 4.2
02/03:00pm 10.6 7.0 4.9 68 2.6 NW 13 26 7 14 1012.9 1013.4 4.2
02/02:30pm 10.1 8.0 8.4 89 0.8 NW 9 15 5 8 1012.7 1013.2 4.2

Other Formats:

Comma delimited format used in spreadsheet applications
http://www.bom.gov.au/fwo/IDN60801/IDN60801.94919.axf

JavaScript Object Notation format (JSON) in row-major order
http://www.bom.gov.au/fwo/IDN60801/IDN60801.94919.json